Time;durP1;ratioP1;P1;durP2;ratioP2;P2;SDS_P1;SDS_P2;PMS_P1;PMS_P2;Temp;Humidity;BMP_temperature;BMP_pressure;BME280_temperature;BME280_humidity;BME280_pressure;Samples;Min_cycle;Max_cycle;Signal;HPM_P1;HPM_P2
2021/06/27 00:00:43;;;;;;;7.78;5.55;;;19.20;98.80;;;;;;5051939;28;20132;-78
2021/06/27 00:03:12;;;;;;;6.25;4.80;;;19.10;98.90;;;;;;5033673;28;20135;-78
2021/06/27 00:05:41;;;;;;;7.72;5.40;;;19.00;99.40;;;;;;5053236;28;20049;-78
2021/06/27 00:08:12;;;;;;;6.75;5.30;;;18.90;99.70;;;;;;5035940;28;20084;-77
2021/06/27 00:10:44;;;;;;;7.07;5.00;;;18.80;99.50;;;;;;5054664;28;20103;-78
2021/06/27 00:13:11;;;;;;;6.65;5.07;;;18.70;99.60;;;;;;5052679;28;20127;-77
2021/06/27 00:15:41;;;;;;;6.72;5.28;;;18.60;99.70;;;;;;5052227;28;20131;-79
2021/06/27 00:18:10;;;;;;;7.50;5.60;;;18.60;99.90;;;;;;5052729;28;20481;-78
2021/06/27 00:20:41;;;;;;;8.35;5.50;;;18.50;99.90;;;;;;5053531;28;20124;-79
2021/06/27 00:23:11;;;;;;;7.90;5.80;;;18.50;99.90;;;;;;5054994;28;20139;-76
2021/06/27 00:25:39;;;;;;;8.05;5.80;;;18.50;99.90;;;;;;5055305;28;20128;-79
2021/06/27 00:28:08;;;;;;;8.82;6.30;;;18.50;99.90;;;;;;5036898;28;20095;-79
2021/06/27 00:30:37;;;;;;;8.05;5.60;;;18.40;99.90;;;;;;5036093;28;20041;-78
2021/06/27 00:33:06;;;;;;;9.45;7.05;;;18.40;99.90;;;;;;5054768;28;20079;-80
2021/06/27 00:35:34;;;;;;;8.48;6.30;;;18.40;99.90;;;;;;5046356;28;20076;-80
2021/06/27 00:38:01;;;;;;;9.02;5.55;;;18.40;99.90;;;;;;5052355;28;20123;-80
2021/06/27 00:40:31;;;;;;;9.13;6.05;;;18.40;99.90;;;;;;5034856;28;20129;-79
2021/06/27 00:42:59;;;;;;;7.97;6.43;;;18.40;99.90;;;;;;5052518;28;20128;-79
2021/06/27 00:45:30;;;;;;;7.50;6.00;;;18.50;99.90;;;;;;5052364;28;20126;-80
2021/06/27 00:47:59;;;;;;;9.15;6.00;;;18.50;99.90;;;;;;5053504;28;20133;-81
2021/06/27 00:50:29;;;;;;;7.80;5.95;;;18.50;99.90;;;;;;5055863;28;20499;-78
2021/06/27 00:52:57;;;;;;;7.93;5.57;;;18.60;99.90;;;;;;5055640;28;20135;-80
2021/06/27 00:55:24;;;;;;;7.22;5.50;;;18.50;99.90;;;;;;5056138;28;20140;-80
2021/06/27 00:57:54;;;;;;;7.95;5.53;;;18.50;99.90;;;;;;5056248;28;20136;-78
2021/06/27 01:00:25;;;;;;;7.07;5.00;;;18.50;99.90;;;;;;5056415;28;20504;-80
2021/06/27 01:02:53;;;;;;;6.97;5.40;;;18.50;99.90;;;;;;5056196;28;20124;-80
2021/06/27 01:05:24;;;;;;;8.57;6.00;;;18.50;99.90;;;;;;5055712;28;20637;-80
2021/06/27 01:07:51;;;;;;;7.32;5.18;;;18.60;99.90;;;;;;5037573;28;20055;-79
2021/06/27 01:10:18;;;;;;;7.10;5.53;;;18.60;99.90;;;;;;5056144;28;20080;-80
2021/06/27 01:12:46;;;;;;;7.40;5.88;;;18.60;99.90;;;;;;5056225;28;20131;-78
2021/06/27 01:15:17;;;;;;;9.02;5.93;;;18.60;99.90;;;;;;5056147;28;20132;-79
2021/06/27 01:17:48;;;;;;;8.05;5.47;;;18.60;99.90;;;;;;5055079;28;20149;-80
2021/06/27 01:20:21;;;;;;;8.10;5.40;;;18.60;99.90;;;;;;5054981;28;20131;-80
2021/06/27 01:22:50;;;;;;;7.10;5.13;;;18.60;99.90;;;;;;5055529;28;20473;-79
2021/06/27 01:25:23;;;;;;;7.40;5.60;;;18.60;99.90;;;;;;5055768;28;20148;-78
2021/06/27 01:27:50;;;;;;;8.02;6.05;;;18.60;99.90;;;;;;5037696;28;20049;-80
2021/06/27 01:30:19;;;;;;;6.90;5.00;;;18.50;99.90;;;;;;5055390;28;20461;-78
2021/06/27 01:32:48;;;;;;;9.10;5.53;;;18.50;99.90;;;;;;5065414;28;20491;-79
2021/06/27 01:35:18;;;;;;;8.18;5.53;;;18.50;99.90;;;;;;5060395;28;20133;-78
2021/06/27 01:37:51;;;;;;;10.32;5.90;;;18.50;99.90;;;;;;5037951;28;20068;-79
2021/06/27 01:40:20;;;;;;;9.77;6.40;;;18.40;99.90;;;;;;5055511;28;20049;-79
2021/06/27 01:42:48;;;;;;;8.95;6.25;;;18.30;99.70;;;;;;5055409;28;20127;-79
2021/06/27 01:45:22;;;;;;;8.15;5.90;;;18.10;99.80;;;;;;5055180;28;20052;-79
2021/06/27 01:47:56;;;;;;;7.53;5.65;;;17.90;99.90;;;;;;5055295;28;20171;-79
2021/06/27 01:50:24;;;;;;;7.17;5.40;;;17.80;99.90;;;;;;5054847;28;20574;-78
2021/06/27 01:52:53;;;;;;;7.53;5.68;;;17.80;99.90;;;;;;5054659;28;20128;-79
2021/06/27 01:55:21;;;;;;;7.18;5.68;;;17.80;99.90;;;;;;5055441;28;20079;-79
2021/06/27 01:57:50;;;;;;;8.23;5.85;;;17.80;99.90;;;;;;5051355;28;20522;-79
2021/06/27 02:00:18;;;;;;;8.07;5.57;;;17.90;99.90;;;;;;5054206;28;20461;-79
2021/06/27 02:02:46;;;;;;;7.82;6.22;;;17.90;99.90;;;;;;5055009;28;20072;-79
2021/06/27 02:05:13;;;;;;;7.50;5.82;;;18.00;99.90;;;;;;5054875;28;20076;-77
2021/06/27 02:07:41;;;;;;;8.35;5.75;;;17.90;99.90;;;;;;5054742;28;20131;-79
2021/06/27 02:10:13;;;;;;;8.35;6.43;;;18.00;99.90;;;;;;5055086;28;20076;-79
2021/06/27 02:12:41;;;;;;;8.73;6.05;;;18.00;99.90;;;;;;5036357;28;20137;-79
2021/06/27 02:15:11;;;;;;;8.15;6.25;;;18.00;99.90;;;;;;5054935;28;20148;-80
2021/06/27 02:17:39;;;;;;;8.57;6.35;;;18.00;99.90;;;;;;5037243;28;20076;-79
2021/06/27 02:20:08;;;;;;;10.00;6.45;;;18.00;99.90;;;;;;5052937;28;20128;-77
2021/06/27 02:22:35;;;;;;;7.22;5.72;;;17.90;99.90;;;;;;5025058;28;20460;-79
2021/06/27 02:25:03;;;;;;;7.53;5.90;;;17.80;99.90;;;;;;5043020;28;20132;-80
2021/06/27 02:27:31;;;;;;;8.85;6.32;;;17.70;99.90;;;;;;5037048;28;20055;-79
2021/06/27 02:29:58;;;;;;;8.27;6.05;;;17.70;99.90;;;;;;5069396;28;20471;-78
2021/06/27 02:32:25;;;;;;;7.70;6.00;;;17.60;99.90;;;;;;5036971;28;21554;-79
2021/06/27 02:34:52;;;;;;;8.50;6.10;;;17.60;99.90;;;;;;5054144;28;20084;-78
2021/06/27 02:37:19;;;;;;;7.45;5.93;;;17.60;99.90;;;;;;5054761;28;20083;-77
2021/06/27 02:39:47;;;;;;;7.22;5.60;;;17.70;99.90;;;;;;5054519;28;20124;-78
2021/06/27 02:42:14;;;;;;;10.93;6.55;;;17.70;99.90;;;;;;5036357;28;20049;-79
2021/06/27 02:44:43;;;;;;;7.68;5.80;;;17.70;99.90;;;;;;5054328;28;20128;-79
2021/06/27 02:47:10;;;;;;;8.52;5.50;;;17.80;99.90;;;;;;5053995;28;20136;-79
2021/06/27 02:49:37;;;;;;;9.40;6.68;;;17.70;99.90;;;;;;5053567;28;20059;-79
2021/06/27 02:52:05;;;;;;;9.07;6.45;;;17.70;99.90;;;;;;5036196;28;20131;-76
2021/06/27 02:54:33;;;;;;;8.55;5.95;;;17.70;99.90;;;;;;5046831;28;20124;-80
2021/06/27 02:57:00;;;;;;;8.45;6.05;;;17.60;99.90;;;;;;5053895;28;20129;-77
2021/06/27 02:59:27;;;;;;;8.45;6.18;;;17.60;99.90;;;;;;5053922;28;20132;-78
2021/06/27 03:01:56;;;;;;;7.43;5.63;;;17.50;99.90;;;;;;5053642;28;20128;-75
2021/06/27 03:04:23;;;;;;;8.63;6.00;;;17.50;99.90;;;;;;5050803;28;20132;-79
2021/06/27 03:06:50;;;;;;;7.60;5.85;;;17.50;99.90;;;;;;5033699;28;20135;-78
2021/06/27 03:09:17;;;;;;;7.90;5.05;;;17.50;99.90;;;;;;5049353;28;20123;-79
2021/06/27 03:11:45;;;;;;;8.68;6.57;;;17.40;99.90;;;;;;5050105;28;20052;-77
2021/06/27 03:14:12;;;;;;;7.60;6.10;;;17.40;99.90;;;;;;5049696;28;20052;-78
2021/06/27 03:16:39;;;;;;;7.15;5.45;;;17.40;99.90;;;;;;5049445;28;20053;-79
2021/06/27 03:19:13;;;;;;;8.95;6.32;;;17.40;99.90;;;;;;5050406;28;20052;-80
2021/06/27 03:21:40;;;;;;;7.00;5.50;;;17.50;99.90;;;;;;5050550;28;20049;-77
2021/06/27 03:24:08;;;;;;;7.35;5.85;;;17.50;99.90;;;;;;5032140;28;20099;-79
2021/06/27 03:26:35;;;;;;;8.82;5.70;;;17.50;99.90;;;;;;5050196;28;20072;-78
2021/06/27 03:29:03;;;;;;;7.30;6.03;;;17.50;99.90;;;;;;5050271;28;20152;-77
2021/06/27 03:31:30;;;;;;;7.55;5.90;;;17.60;99.90;;;;;;5053143;28;20131;-78
2021/06/27 03:33:57;;;;;;;8.90;6.13;;;17.60;99.90;;;;;;5050032;28;20545;-78
2021/06/27 03:36:26;;;;;;;8.18;6.07;;;17.60;99.90;;;;;;5050106;28;20076;-78
2021/06/27 03:38:58;;;;;;;7.72;6.18;;;17.60;99.90;;;;;;5050266;28;20084;-79
2021/06/27 03:41:25;;;;;;;8.05;5.70;;;17.50;99.90;;;;;;5050442;28;20041;-77
2021/06/27 03:43:53;;;;;;;7.93;6.13;;;17.50;99.90;;;;;;5049237;28;20204;-78
2021/06/27 03:46:20;;;;;;;7.88;5.43;;;17.50;99.90;;;;;;5031610;28;20045;-79
2021/06/27 03:48:47;;;;;;;7.82;5.97;;;17.50;99.90;;;;;;5049755;28;20131;-78
2021/06/27 03:51:15;;;;;;;7.65;6.00;;;17.50;99.90;;;;;;5031619;28;20061;-77
2021/06/27 03:53:44;;;;;;;8.80;5.80;;;17.50;99.90;;;;;;5049251;28;20506;-79
2021/06/27 03:56:11;;;;;;;8.68;5.53;;;17.50;99.90;;;;;;5049531;28;20098;-77
2021/06/27 03:58:38;;;;;;;8.20;5.90;;;17.50;99.90;;;;;;5048948;28;20487;-80
2021/06/27 04:01:05;;;;;;;7.43;5.75;;;17.40;99.90;;;;;;5047861;28;20072;-81
2021/06/27 04:03:32;;;;;;;9.13;6.03;;;17.40;99.90;;;;;;5050567;28;20140;-81
2021/06/27 04:05:59;;;;;;;9.57;6.50;;;17.40;99.90;;;;;;5052628;28;20133;-78
2021/06/27 04:08:26;;;;;;;8.27;6.32;;;17.30;99.90;;;;;;5052197;28;20060;-80
2021/06/27 04:10:57;;;;;;;7.68;6.07;;;17.20;99.90;;;;;;5052463;28;20135;-79
2021/06/27 04:13:26;;;;;;;9.82;7.93;;;17.10;99.90;;;;;;5052063;28;20124;-79
2021/06/27 04:15:53;;;;;;;11.95;8.95;;;17.10;99.90;;;;;;5018214;28;20494;-79
2021/06/27 04:18:20;;;;;;;10.88;8.60;;;17.00;99.90;;;;;;5052569;28;20128;-79
2021/06/27 04:20:47;;;;;;;10.57;7.70;;;16.90;99.90;;;;;;5051798;28;20131;-80
2021/06/27 04:23:15;;;;;;;10.77;7.60;;;16.90;99.90;;;;;;5054582;28;20092;-80
2021/06/27 04:25:42;;;;;;;11.27;8.38;;;16.90;99.90;;;;;;5056350;28;20083;-78
2021/06/27 04:28:11;;;;;;;11.45;7.90;;;16.90;99.90;;;;;;5056671;28;20152;-78
2021/06/27 04:30:40;;;;;;;9.80;7.38;;;16.90;99.90;;;;;;5056974;28;20568;-78
2021/06/27 04:33:09;;;;;;;9.52;7.30;;;16.90;99.90;;;;;;5056667;28;20145;-79
2021/06/27 04:35:37;;;;;;;10.15;6.88;;;17.00;99.90;;;;;;5057034;28;20120;-79
2021/06/27 04:38:05;;;;;;;10.15;7.10;;;17.00;99.90;;;;;;5056832;28;20083;-80
2021/06/27 04:40:33;;;;;;;9.60;7.30;;;17.10;99.90;;;;;;5048649;28;20080;-80
2021/06/27 04:43:01;;;;;;;9.85;7.30;;;17.10;99.90;;;;;;5056567;28;20553;-79
2021/06/27 04:45:29;;;;;;;10.13;7.38;;;17.10;99.90;;;;;;5050553;28;20126;-80
2021/06/27 04:47:57;;;;;;;10.13;7.10;;;17.10;99.90;;;;;;5056422;28;20513;-78
2021/06/27 04:50:25;;;;;;;9.63;7.05;;;17.10;99.90;;;;;;5038426;28;20048;-77
2021/06/27 04:52:52;;;;;;;9.68;7.57;;;17.10;99.90;;;;;;5056005;28;20582;-76
2021/06/27 04:55:20;;;;;;;9.77;7.53;;;17.20;99.90;;;;;;5055937;28;20083;-78
2021/06/27 04:57:48;;;;;;;9.95;7.65;;;17.20;99.90;;;;;;5056488;28;20072;-78
2021/06/27 05:00:17;;;;;;;12.45;8.15;;;17.30;99.90;;;;;;5055931;28;20470;-77
2021/06/27 05:02:45;;;;;;;11.88;8.00;;;17.30;99.90;;;;;;5056753;28;20084;-78
2021/06/27 05:05:13;;;;;;;9.95;7.20;;;17.30;99.90;;;;;;5056749;28;20133;-78
2021/06/27 05:07:40;;;;;;;10.55;7.20;;;17.40;99.90;;;;;;5055654;28;20562;-78
2021/06/27 05:10:09;;;;;;;9.70;7.07;;;17.40;99.90;;;;;;5055976;28;20478;-78
2021/06/27 05:12:36;;;;;;;10.52;7.18;;;17.50;99.90;;;;;;5050264;28;20140;-78
2021/06/27 05:15:04;;;;;;;10.18;7.22;;;17.60;99.90;;;;;;5051367;28;20085;-76
2021/06/27 05:17:31;;;;;;;8.40;6.65;;;17.60;99.90;;;;;;5037366;28;20049;-78
2021/06/27 05:20:00;;;;;;;8.85;6.80;;;17.60;99.90;;;;;;5070249;28;20052;-77
2021/06/27 05:22:27;;;;;;;9.52;6.88;;;17.70;99.90;;;;;;5053078;28;20072;-77
2021/06/27 05:24:54;;;;;;;8.68;6.70;;;17.70;99.90;;;;;;5055258;28;20155;-78
2021/06/27 05:27:21;;;;;;;9.80;6.82;;;17.80;99.90;;;;;;5055306;28;20049;-80
2021/06/27 05:29:48;;;;;;;8.73;5.90;;;17.90;99.90;;;;;;5055906;28;20131;-78
2021/06/27 05:32:15;;;;;;;9.25;6.95;;;18.00;99.90;;;;;;5056704;28;20120;-80
2021/06/27 05:34:42;;;;;;;9.65;7.18;;;18.00;99.90;;;;;;5041290;28;20136;-79
2021/06/27 05:37:11;;;;;;;9.40;6.68;;;18.10;99.90;;;;;;5042784;28;20072;-79
2021/06/27 05:39:38;;;;;;;10.68;7.28;;;18.10;99.90;;;;;;5046054;28;20131;-77
2021/06/27 05:42:06;;;;;;;9.82;7.70;;;18.10;99.90;;;;;;5061371;28;20124;-80
2021/06/27 05:44:34;;;;;;;10.75;7.25;;;18.10;99.90;;;;;;5048747;28;20076;-80
2021/06/27 05:47:01;;;;;;;10.27;7.75;;;18.10;99.90;;;;;;5049068;28;20084;-79
2021/06/27 05:49:28;;;;;;;10.27;7.38;;;18.10;99.90;;;;;;5051770;28;20041;-80
2021/06/27 05:51:55;;;;;;;9.60;7.28;;;18.00;99.90;;;;;;5053157;28;20550;-80
2021/06/27 05:54:24;;;;;;;10.15;6.80;;;18.00;99.90;;;;;;5047240;28;20127;-78
2021/06/27 05:56:51;;;;;;;9.60;6.60;;;17.90;99.90;;;;;;5050450;28;20131;-78
2021/06/27 05:59:19;;;;;;;9.45;6.85;;;18.00;99.90;;;;;;5041148;28;20546;-80
2021/06/27 06:01:46;;;;;;;8.32;6.25;;;18.00;99.90;;;;;;5066739;28;20073;-76
2021/06/27 06:04:13;;;;;;;11.63;6.75;;;18.00;99.90;;;;;;5043842;28;20144;-79
2021/06/27 06:06:41;;;;;;;9.20;6.45;;;18.10;99.90;;;;;;5048278;28;20132;-78
2021/06/27 06:09:08;;;;;;;8.52;6.75;;;18.20;99.90;;;;;;5049637;28;20076;-79
2021/06/27 06:11:37;;;;;;;8.85;6.68;;;18.30;99.90;;;;;;5054591;28;20140;-79
2021/06/27 06:14:04;;;;;;;10.07;6.90;;;18.30;99.90;;;;;;5051195;28;20143;-78
2021/06/27 06:16:31;;;;;;;8.70;6.80;;;18.40;99.90;;;;;;5053770;28;20077;-79
2021/06/27 06:18:59;;;;;;;8.63;6.22;;;18.40;99.90;;;;;;5054647;28;20080;-78
2021/06/27 06:21:26;;;;;;;7.97;6.47;;;18.50;99.90;;;;;;5054339;28;21699;-79
2021/06/27 06:23:53;;;;;;;8.77;6.68;;;18.50;99.90;;;;;;5055019;28;20080;-77
2021/06/27 06:26:20;;;;;;;9.45;6.82;;;18.50;99.90;;;;;;5054442;28;20081;-77
2021/06/27 06:28:48;;;;;;;8.35;6.38;;;18.60;99.90;;;;;;5054446;28;20072;-78
2021/06/27 06:31:16;;;;;;;9.10;6.60;;;18.60;99.90;;;;;;5053566;28;20045;-78
2021/06/27 06:33:43;;;;;;;8.57;6.68;;;18.70;99.90;;;;;;5054503;28;20049;-78
2021/06/27 06:36:10;;;;;;;9.80;6.68;;;18.70;99.90;;;;;;5054049;28;20180;-78
2021/06/27 06:38:37;;;;;;;9.10;6.70;;;18.80;99.90;;;;;;5057163;28;20136;-79
2021/06/27 06:41:05;;;;;;;9.82;6.32;;;18.80;99.90;;;;;;5049592;28;20084;-79
2021/06/27 06:43:32;;;;;;;8.40;5.82;;;18.90;99.90;;;;;;5054860;28;20120;-78
2021/06/27 06:46:02;;;;;;;8.68;6.32;;;18.90;99.90;;;;;;5048116;28;20141;-78
2021/06/27 06:48:29;;;;;;;7.22;5.38;;;19.10;99.90;;;;;;5054534;28;20371;-79
2021/06/27 06:50:56;;;;;;;7.57;6.00;;;19.10;99.90;;;;;;5054473;28;20084;-80
2021/06/27 06:53:23;;;;;;;8.05;5.30;;;19.20;99.90;;;;;;5050952;28;20123;-78
2021/06/27 06:55:51;;;;;;;7.07;5.32;;;19.30;99.90;;;;;;5052729;28;20102;-76
2021/06/27 06:58:21;;;;;;;7.80;5.90;;;19.30;99.90;;;;;;5050981;28;20045;-76
2021/06/27 07:00:48;;;;;;;8.98;6.30;;;19.40;99.90;;;;;;5047660;28;20053;-77
2021/06/27 07:03:16;;;;;;;7.38;5.25;;;19.50;99.90;;;;;;5052280;28;20131;-76
2021/06/27 07:05:43;;;;;;;8.18;6.40;;;19.60;99.90;;;;;;5042925;28;20255;-75
2021/06/27 07:08:10;;;;;;;7.57;5.65;;;19.70;99.90;;;;;;5052186;28;20136;-75
2021/06/27 07:10:37;;;;;;;7.60;5.00;;;19.70;99.90;;;;;;5053247;28;20128;-78
2021/06/27 07:13:04;;;;;;;7.93;5.15;;;19.80;99.90;;;;;;5052283;28;20134;-79
2021/06/27 07:15:32;;;;;;;6.43;4.72;;;19.90;99.90;;;;;;5045838;28;20479;-79
2021/06/27 07:17:59;;;;;;;7.03;4.78;;;20.10;99.90;;;;;;5053759;28;20127;-78
2021/06/27 07:20:33;;;;;;;5.47;4.38;;;20.20;99.90;;;;;;5054118;28;20135;-76
2021/06/27 07:23:11;;;;;;;6.72;4.43;;;20.30;99.90;;;;;;5059418;28;20041;-75
2021/06/27 07:25:38;;;;;;;6.15;4.45;;;20.40;99.90;;;;;;5047823;28;20045;-78
2021/06/27 07:28:06;;;;;;;5.47;4.10;;;20.50;99.70;;;;;;5052008;28;20136;-79
2021/06/27 07:30:33;;;;;;;5.85;4.30;;;20.60;99.60;;;;;;5057298;28;20495;-80
2021/06/27 07:33:00;;;;;;;5.63;4.13;;;20.80;99.40;;;;;;5053474;28;20088;-80
2021/06/27 07:35:29;;;;;;;7.63;4.35;;;20.90;99.40;;;;;;5058300;28;20037;-80
2021/06/27 07:37:57;;;;;;;6.78;4.13;;;21.00;99.00;;;;;;5040082;28;20045;-78
2021/06/27 07:40:25;;;;;;;6.25;4.65;;;21.10;98.90;;;;;;5049490;28;20398;-77
2021/06/27 07:42:54;;;;;;;5.75;4.07;;;21.10;98.50;;;;;;5052586;28;20123;-79
2021/06/27 07:45:21;;;;;;;6.38;4.18;;;21.20;98.60;;;;;;5040226;28;20049;-80
2021/06/27 07:47:48;;;;;;;6.75;4.43;;;21.30;98.60;;;;;;5048916;28;20168;-77
2021/06/27 07:50:16;;;;;;;6.43;4.20;;;21.40;98.50;;;;;;5051319;28;20136;-77
2021/06/27 07:52:44;;;;;;;5.95;4.28;;;21.40;98.40;;;;;;5045192;28;20041;-76
2021/06/27 07:55:12;;;;;;;7.55;5.40;;;21.50;98.40;;;;;;5046725;28;20132;-78
2021/06/27 07:57:40;;;;;;;6.70;4.70;;;21.60;98.40;;;;;;5047352;28;20099;-78
2021/06/27 08:00:11;;;;;;;6.38;4.22;;;21.70;98.60;;;;;;5054885;28;20124;-79
2021/06/27 08:02:38;;;;;;;6.60;5.05;;;21.70;98.60;;;;;;5052245;28;20080;-78
2021/06/27 08:05:07;;;;;;;5.28;4.00;;;21.80;98.40;;;;;;5047108;28;20040;-79
2021/06/27 08:07:34;;;;;;;7.13;3.80;;;21.80;98.40;;;;;;5045466;28;20132;-78
2021/06/27 08:10:05;;;;;;;4.80;3.60;;;21.90;98.40;;;;;;5051796;28;20128;-79
2021/06/27 08:12:33;;;;;;;5.07;3.75;;;22.10;98.30;;;;;;5049197;28;20462;-80
2021/06/27 08:15:00;;;;;;;7.15;3.92;;;22.20;98.00;;;;;;5048789;28;20049;-78
2021/06/27 08:17:27;;;;;;;6.75;3.80;;;22.20;97.90;;;;;;5048768;28;20077;-79
2021/06/27 08:19:54;;;;;;;5.55;3.85;;;22.30;97.90;;;;;;5049309;28;20160;-79
2021/06/27 08:22:22;;;;;;;5.25;3.42;;;22.40;97.90;;;;;;5048520;28;20057;-80
2021/06/27 08:24:49;;;;;;;4.93;3.70;;;22.40;97.80;;;;;;5049629;28;20053;-79
2021/06/27 08:27:18;;;;;;;6.20;3.75;;;22.50;97.60;;;;;;5046844;28;20049;-79
2021/06/27 08:29:45;;;;;;;5.57;4.13;;;22.60;97.80;;;;;;5049462;28;20498;-79
2021/06/27 08:32:12;;;;;;;6.75;4.25;;;22.70;97.30;;;;;;5047260;28;20047;-79
2021/06/27 08:34:40;;;;;;;6.72;4.25;;;22.70;97.40;;;;;;5048548;28;20129;-78
2021/06/27 08:37:07;;;;;;;5.75;3.67;;;22.80;97.20;;;;;;5047828;28;20045;-78
2021/06/27 08:39:34;;;;;;;5.38;3.92;;;22.90;97.00;;;;;;5046339;28;20052;-80
2021/06/27 08:42:02;;;;;;;5.80;3.55;;;23.00;96.30;;;;;;5048658;28;20041;-79
2021/06/27 08:44:31;;;;;;;5.55;3.15;;;23.00;96.60;;;;;;5039000;28;20080;-78
2021/06/27 08:47:00;;;;;;;4.70;3.10;;;23.10;96.60;;;;;;5047007;28;20131;-78
2021/06/27 08:49:27;;;;;;;4.50;3.05;;;23.20;96.40;;;;;;5048159;28;20084;-78
2021/06/27 08:51:56;;;;;;;5.07;3.42;;;23.30;95.70;;;;;;5044500;28;20132;-80
2021/06/27 08:54:24;;;;;;;4.55;2.60;;;23.40;95.60;;;;;;5042542;28;20049;-80
2021/06/27 08:56:51;;;;;;;3.92;2.75;;;23.50;94.90;;;;;;5047907;28;20107;-76
2021/06/27 08:59:18;;;;;;;4.03;2.60;;;23.60;94.60;;;;;;5047888;28;20160;-80
2021/06/27 09:01:47;;;;;;;4.60;2.38;;;23.70;94.20;;;;;;5047213;28;20060;-80
2021/06/27 09:04:18;;;;;;;4.80;2.70;;;23.70;93.40;;;;;;5047866;28;20129;-79
2021/06/27 09:06:45;;;;;;;3.92;2.40;;;23.80;93.20;;;;;;5048048;28;20056;-80
2021/06/27 09:09:16;;;;;;;3.60;2.20;;;23.90;92.30;;;;;;5048915;28;20041;-78
2021/06/27 09:11:59;;;;;;;3.83;1.98;;;24.00;91.50;;;;;;5052334;28;20455;-79
2021/06/27 09:14:34;;;;;;;2.90;1.50;;;24.00;90.10;;;;;;5052141;28;20037;-79
2021/06/27 09:17:24;;;;;;;2.67;1.58;;;24.20;88.80;;;;;;5049131;28;20106;-80
2021/06/27 09:20:05;;;;;;;3.05;1.73;;;24.30;87.40;;;;;;5047393;28;20399;-80
2021/06/27 09:22:35;;;;;;;2.97;1.70;;;24.40;86.10;;;;;;5044570;28;20495;-77
2021/06/27 09:25:21;;;;;;;2.90;1.80;;;24.50;85.00;;;;;;5051836;28;20056;-80
2021/06/27 09:28:09;;;;;;;2.83;1.60;;;24.60;84.20;;;;;;5047479;28;20049;-76
2021/06/27 09:30:40;;;;;;;2.90;1.80;;;24.70;84.60;;;;;;5044534;28;20534;-78
2021/06/27 09:33:12;;;;;;;2.42;1.35;;;24.80;83.70;;;;;;5051987;28;20796;-78
2021/06/27 09:35:49;;;;;;;2.83;1.50;;;24.80;81.80;;;;;;5051964;28;20118;-78
2021/06/27 09:38:32;;;;;;;3.05;1.50;;;24.90;80.50;;;;;;5051295;28;20128;-79
2021/06/27 09:41:02;;;;;;;3.45;1.80;;;24.90;79.20;;;;;;5051723;28;20048;-75
2021/06/27 09:43:32;;;;;;;3.35;1.90;;;25.00;76.40;;;;;;5050905;28;20442;-77
2021/06/27 09:46:02;;;;;;;2.75;1.40;;;25.10;75.70;;;;;;5051061;28;20147;-75
2021/06/27 09:48:30;;;;;;;3.75;1.92;;;25.20;75.00;;;;;;5051034;28;20052;-78
2021/06/27 09:50:59;;;;;;;3.38;1.80;;;25.30;73.50;;;;;;5050767;28;20128;-79
2021/06/27 09:53:38;;;;;;;2.88;1.40;;;25.30;73.40;;;;;;5050671;28;20063;-77
2021/06/27 09:56:08;;;;;;;3.00;1.50;;;25.40;73.80;;;;;;5050809;28;20049;-77
2021/06/27 09:58:36;;;;;;;2.90;1.75;;;25.50;73.10;;;;;;5043033;28;20049;-76
2021/06/27 10:01:21;;;;;;;3.38;1.77;;;25.70;70.40;;;;;;5053187;28;20123;-77
2021/06/27 10:03:54;;;;;;;2.88;1.58;;;25.60;71.10;;;;;;5050495;28;20048;-80
2021/06/27 10:06:23;;;;;;;3.70;1.58;;;25.80;70.90;;;;;;5050671;28;20167;-80
2021/06/27 10:08:50;;;;;;;3.05;1.63;;;25.90;70.90;;;;;;5050798;28;20136;-78
2021/06/27 10:11:20;;;;;;;3.95;1.83;;;25.90;70.00;;;;;;5049387;28;20073;-77
2021/06/27 10:13:49;;;;;;;2.55;1.40;;;26.00;70.40;;;;;;5045496;28;20059;-78
2021/06/27 10:16:31;;;;;;;3.03;1.48;;;26.00;69.90;;;;;;5054940;28;20040;-78
2021/06/27 10:19:01;;;;;;;3.53;1.92;;;26.10;69.40;;;;;;5044841;28;20431;-79
2021/06/27 10:21:31;;;;;;;2.92;1.80;;;26.10;69.00;;;;;;5031496;28;20131;-78
2021/06/27 10:23:59;;;;;;;2.83;1.75;;;26.10;67.60;;;;;;5050119;28;20136;-78
2021/06/27 10:26:28;;;;;;;2.90;1.45;;;26.00;67.50;;;;;;5049216;28;20131;-80
2021/06/27 10:28:56;;;;;;;2.70;1.40;;;26.00;68.20;;;;;;5049986;28;20059;-78
2021/06/27 10:31:25;;;;;;;2.90;1.88;;;26.00;68.50;;;;;;5050150;28;20060;-79
2021/06/27 10:33:53;;;;;;;2.60;1.60;;;26.10;68.50;;;;;;5032541;28;20049;-79
2021/06/27 10:36:39;;;;;;;3.50;1.92;;;26.10;66.40;;;;;;5049432;28;20049;-79
2021/06/27 10:39:10;;;;;;;2.90;1.58;;;26.20;66.50;;;;;;5049535;28;20149;-79
2021/06/27 10:41:55;;;;;;;3.65;1.98;;;26.20;67.50;;;;;;5051883;28;20517;-80
2021/06/27 10:44:24;;;;;;;2.70;1.40;;;26.20;66.70;;;;;;5049664;28;20053;-80
2021/06/27 10:46:54;;;;;;;3.60;1.80;;;26.20;66.20;;;;;;5048423;28;20037;-81
2021/06/27 10:50:02;;;;;;;3.47;1.67;;;26.20;66.80;;;;;;5047886;28;20065;-79
2021/06/27 10:53:02;;;;;;;2.92;1.73;;;26.30;65.80;;;;;;5048082;28;20040;-79
2021/06/27 10:55:31;;;;;;;3.90;2.30;;;26.40;65.40;;;;;;5047898;28;20068;-81
2021/06/27 10:58:05;;;;;;;3.80;2.20;;;26.40;64.90;;;;;;5046643;28;20130;-80
2021/06/27 11:01:08;;;;;;;3.63;1.77;;;26.40;63.50;;;;;;5048322;28;20457;-79
2021/06/27 11:03:40;;;;;;;3.70;1.50;;;26.50;63.80;;;;;;5041984;28;20053;-79
2021/06/27 11:06:38;;;;;;;2.90;1.50;;;26.50;64.40;;;;;;5048667;28;20490;-77
2021/06/27 11:09:27;;;;;;;3.50;1.70;;;26.60;64.10;;;;;;5044245;28;20566;-78
2021/06/27 11:11:57;;;;;;;3.65;1.73;;;26.70;63.20;;;;;;5045415;28;20049;-79
2021/06/27 11:14:24;;;;;;;7.57;1.48;;;26.70;63.80;;;;;;5047441;28;20400;-79
2021/06/27 11:16:59;;;;;;;2.63;1.50;;;26.80;63.80;;;;;;5048469;28;20127;-80
2021/06/27 11:19:29;;;;;;;2.70;1.50;;;26.90;63.60;;;;;;5048411;28;20057;-79
2021/06/27 11:22:18;;;;;;;2.42;1.40;;;27.00;62.40;;;;;;5048931;28;20140;-78
2021/06/27 11:24:49;;;;;;;2.60;1.50;;;27.00;62.20;;;;;;5043473;28;20085;-81
2021/06/27 11:27:35;;;;;;;2.92;1.85;;;27.20;62.60;;;;;;5048715;28;20053;-80
2021/06/27 11:30:23;;;;;;;2.83;1.58;;;27.20;62.80;;;;;;5048419;28;20508;-78
2021/06/27 11:32:52;;;;;;;2.95;1.40;;;27.30;62.80;;;;;;5044253;28;20052;-80
2021/06/27 11:35:45;;;;;;;2.38;1.23;;;27.30;61.80;;;;;;5047443;28;20053;-78
2021/06/27 11:38:39;;;;;;;3.10;1.63;;;27.40;61.50;;;;;;5048945;28;20084;-78
2021/06/27 11:41:10;;;;;;;3.20;1.65;;;27.40;60.70;;;;;;5049155;28;20087;-79
2021/06/27 11:44:01;;;;;;;3.15;2.10;;;27.40;60.50;;;;;;5030730;28;20686;-79
2021/06/27 11:46:32;;;;;;;3.40;1.75;;;27.40;60.80;;;;;;5031273;28;20146;-79
2021/06/27 11:49:02;;;;;;;2.60;1.40;;;27.40;60.60;;;;;;5042082;28;20128;-79
2021/06/27 11:51:39;;;;;;;2.80;1.55;;;27.40;60.60;;;;;;5030669;28;20041;-79
2021/06/27 11:54:09;;;;;;;2.53;1.60;;;27.50;61.30;;;;;;5042588;28;20152;-80
2021/06/27 11:57:02;;;;;;;2.90;1.33;;;27.60;61.30;;;;;;5049327;28;20136;-80
2021/06/27 11:59:30;;;;;;;2.78;1.60;;;27.60;60.30;;;;;;5048383;28;20399;-80
2021/06/27 12:02:09;;;;;;;2.72;1.60;;;27.70;59.70;;;;;;5040501;28;20053;-78
2021/06/27 12:04:47;;;;;;;3.22;1.80;;;27.80;59.50;;;;;;5016660;28;20068;-78
2021/06/27 12:07:36;;;;;;;2.88;1.50;;;27.80;59.80;;;;;;5048274;28;20088;-78
2021/06/27 12:10:08;;;;;;;3.55;1.40;;;27.90;59.60;;;;;;5048297;28;20136;-79
2021/06/27 12:12:41;;;;;;;2.80;1.65;;;27.90;59.40;;;;;;5041705;28;20136;-77
2021/06/27 12:15:25;;;;;;;2.67;1.30;;;28.00;58.30;;;;;;5047114;28;20068;-77
2021/06/27 12:17:58;;;;;;;2.63;1.50;;;28.10;58.80;;;;;;5048748;28;20124;-77
2021/06/27 12:20:28;;;;;;;2.05;1.23;;;28.20;59.20;;;;;;5048027;28;20064;-79
2021/06/27 12:22:59;;;;;;;3.10;1.60;;;28.30;59.70;;;;;;5048435;28;20088;-76
2021/06/27 12:25:28;;;;;;;2.70;1.50;;;28.30;58.30;;;;;;5045923;28;20698;-78
2021/06/27 12:28:03;;;;;;;3.47;1.85;;;28.40;57.80;;;;;;5048252;28;20072;-77
2021/06/27 12:30:53;;;;;;;3.35;1.92;;;28.60;58.90;;;;;;5048061;28;20049;-78
2021/06/27 12:33:26;;;;;;;3.50;2.47;;;28.70;58.90;;;;;;5041534;28;20124;-76
2021/06/27 12:35:58;;;;;;;3.53;1.90;;;28.90;58.40;;;;;;5047851;28;20167;-78
2021/06/27 12:38:26;;;;;;;3.20;1.70;;;29.00;56.40;;;;;;5047960;28;20529;-80
2021/06/27 12:40:56;;;;;;;2.95;1.60;;;29.00;55.90;;;;;;5048392;28;20164;-79
2021/06/27 12:43:33;;;;;;;2.53;1.45;;;29.10;56.90;;;;;;5046328;28;20145;-79
2021/06/27 12:46:30;;;;;;;3.10;1.70;;;29.10;55.80;;;;;;5052106;28;20124;-79
2021/06/27 12:49:19;;;;;;;2.33;1.23;;;29.20;55.40;;;;;;5048640;28;20486;-79
2021/06/27 12:51:52;;;;;;;2.80;1.50;;;29.40;56.00;;;;;;5052023;28;20087;-79
2021/06/27 12:54:28;;;;;;;2.67;1.42;;;29.50;56.90;;;;;;5051585;28;20553;-79
2021/06/27 12:57:04;;;;;;;2.78;1.48;;;29.70;56.50;;;;;;5052533;28;20109;-79
2021/06/27 12:59:51;;;;;;;2.50;1.40;;;29.80;56.20;;;;;;5044400;28;20103;-78
2021/06/27 13:02:23;;;;;;;2.70;1.50;;;29.90;55.80;;;;;;5051555;28;20045;-79